createdAt,value
2019-05-13T00:02:00.512Z,82.94
2019-05-13T00:04:28.024Z,82.85
2019-05-13T00:06:57.706Z,82.14
2019-05-13T00:09:24.760Z,82.97
2019-05-13T00:11:54.040Z,83.70
2019-05-13T00:14:23.933Z,83.80
2019-05-13T00:16:53.731Z,84.11
2019-05-13T00:19:20.768Z,83.53
2019-05-13T00:21:48.265Z,83.34
2019-05-13T00:24:15.768Z,83.66
2019-05-13T00:26:44.437Z,84.22
2019-05-13T00:29:14.168Z,84.29
2019-05-13T00:31:43.693Z,83.67
2019-05-13T00:34:10.864Z,83.60
2019-05-13T00:36:38.360Z,84.30
2019-05-13T00:39:06.745Z,83.74
2019-05-13T00:41:34.232Z,83.51
2019-05-13T00:44:03.860Z,84.63
2019-05-13T00:46:33.849Z,83.87
2019-05-13T00:49:00.597Z,84.04
2019-05-13T00:51:28.168Z,84.33
2019-05-13T00:53:55.752Z,85.03
2019-05-13T00:56:23.734Z,84.45
2019-05-13T00:58:51.342Z,84.86
2019-05-13T01:01:18.953Z,85.28
2019-05-13T01:03:46.516Z,85.59
2019-05-13T01:06:14.781Z,85.08
2019-05-13T01:08:44.197Z,84.67
2019-05-13T01:11:13.311Z,84.68
2019-05-13T01:13:43.208Z,84.84
2019-05-13T01:16:10.129Z,85.10
2019-05-13T01:18:37.692Z,84.52
2019-05-13T01:21:05.206Z,84.42
2019-05-13T01:23:34.392Z,84.00
2019-05-13T01:26:03.916Z,83.57
2019-05-13T01:28:34.355Z,84.98
2019-05-13T01:31:01.070Z,85.83
2019-05-13T01:33:28.560Z,85.96
2019-05-13T01:35:56.066Z,85.63
2019-05-13T01:38:24.128Z,85.33
2019-05-13T01:40:53.891Z,84.70
2019-05-13T01:43:24.283Z,85.76
2019-05-13T01:45:50.932Z,86.00
2019-05-13T01:48:18.436Z,86.13
2019-05-13T01:50:45.942Z,86.37
2019-05-13T01:53:14.542Z,86.68
2019-05-13T01:55:44.084Z,86.73
2019-05-13T01:58:11.452Z,85.94
2019-05-13T02:00:38.967Z,86.37
2019-05-13T02:03:06.464Z,86.58
2019-05-13T02:05:34.290Z,86.67
2019-05-13T02:08:04.502Z,87.32
2019-05-13T02:10:53.899Z,86.64
2019-05-13T02:13:20.693Z,87.26
2019-05-13T02:15:48.200Z,87.54
2019-05-13T02:18:15.708Z,86.46
2019-05-13T02:20:44.286Z,87.50
2019-05-13T02:23:14.360Z,87.29
2019-05-13T02:25:43.449Z,87.14
2019-05-13T02:28:10.819Z,87.44
2019-05-13T02:30:38.439Z,87.08
2019-05-13T02:33:05.928Z,87.86
2019-05-13T02:35:33.455Z,88.32
2019-05-13T02:38:18.414Z,88.07
2019-05-13T02:40:32.733Z,89.31
2019-05-13T02:43:02.907Z,88.86
2019-05-13T02:45:29.026Z,89.03
2019-05-13T02:47:56.509Z,89.25
2019-05-13T02:50:24.018Z,89.23
2019-05-13T02:52:53.148Z,88.99
2019-05-13T02:55:22.321Z,89.04
2019-05-13T02:57:52.896Z,88.37
2019-05-13T03:00:23.535Z,88.39
2019-05-13T03:02:52.376Z,87.84
2019-05-13T03:05:21.973Z,87.74
2019-05-13T03:07:52.964Z,87.92
2019-05-13T03:10:22.427Z,88.19
2019-05-13T03:12:53.171Z,88.86
2019-05-13T03:15:18.558Z,88.95
2019-05-13T03:17:54.006Z,88.28
2019-05-13T03:20:22.887Z,88.37
2019-05-13T03:22:52.530Z,87.80
2019-05-13T03:25:22.749Z,89.17
2019-05-13T03:27:53.012Z,88.94
2019-05-13T03:30:24.471Z,88.59
2019-05-13T03:32:58.574Z,89.47
2019-05-13T03:35:17.791Z,89.55
2019-05-13T03:37:45.346Z,89.77
2019-05-13T03:40:13.507Z,89.53
2019-05-13T03:42:42.651Z,89.88
2019-05-13T03:45:12.754Z,88.70
2019-05-13T03:47:42.035Z,88.96
2019-05-13T03:50:08.728Z,88.94
2019-05-13T03:52:36.235Z,89.21
2019-05-13T03:55:04.205Z,89.76
2019-05-13T03:57:33.686Z,89.60
2019-05-13T04:00:03.459Z,89.65
2019-05-13T04:02:32.517Z,89.12
2019-05-13T04:05:03.838Z,89.66
2019-05-13T04:07:32.431Z,89.65
2019-05-13T04:09:58.708Z,89.71
2019-05-13T04:12:28.594Z,89.82
2019-05-13T04:14:55.437Z,89.30
2019-05-13T04:17:24.297Z,88.73
2019-05-13T04:19:52.933Z,88.76
2019-05-13T04:22:23.005Z,88.57
2019-05-13T04:24:52.911Z,87.58
2019-05-13T04:27:19.457Z,87.84
2019-05-13T04:29:47.026Z,87.31
2019-05-13T04:32:15.397Z,86.60
2019-05-13T04:34:42.921Z,86.76
2019-05-13T04:37:13.227Z,86.06
2019-05-13T04:39:50.172Z,85.51
2019-05-13T04:42:08.888Z,84.83
2019-05-13T04:44:36.380Z,84.24
2019-05-13T04:47:04.270Z,83.76
2019-05-13T04:49:32.783Z,83.13
2019-05-13T04:52:03.394Z,82.45
2019-05-13T04:54:32.778Z,82.96
2019-05-13T04:56:58.902Z,82.03
2019-05-13T04:59:26.565Z,82.67
2019-05-13T05:02:03.891Z,82.72
2019-05-13T05:04:33.998Z,82.07
2019-05-13T05:07:16.000Z,81.43
2019-05-13T05:10:11.656Z,81.41
2019-05-13T05:12:32.570Z,80.00
2019-05-13T05:15:04.506Z,79.95
2019-05-13T05:17:52.302Z,80.11
2019-05-13T05:20:23.136Z,79.42
2019-05-13T05:23:04.553Z,79.18
2019-05-13T05:25:52.177Z,78.78
2019-05-13T05:28:38.080Z,78.95
2019-05-13T05:31:11.562Z,77.60
2019-05-13T05:33:57.399Z,77.25
2019-05-13T05:36:32.549Z,76.88
2019-05-13T05:39:18.533Z,77.41
2019-05-13T05:41:46.496Z,77.03
2019-05-13T05:44:14.010Z,77.19
2019-05-13T05:46:42.796Z,76.22
2019-05-13T05:49:12.755Z,76.58
2019-05-13T05:51:41.870Z,77.11
2019-05-13T05:54:12.162Z,76.17
2019-05-13T05:56:41.362Z,76.75
2019-05-13T05:59:08.223Z,75.85
2019-05-13T06:01:37.448Z,75.76
2019-05-13T06:04:05.185Z,75.86
2019-05-13T06:06:33.080Z,75.35
2019-05-13T06:09:01.935Z,74.08
2019-05-13T06:11:31.198Z,73.84
2019-05-13T06:13:58.824Z,72.99
2019-05-13T06:16:26.326Z,72.19
2019-05-13T06:18:53.833Z,74.30
2019-05-13T06:21:21.622Z,74.58
2019-05-13T06:23:51.831Z,73.51
2019-05-13T06:26:19.216Z,72.92
2019-05-13T06:28:46.716Z,73.09
2019-05-13T06:31:14.785Z,71.60
2019-05-13T06:33:42.362Z,72.76
2019-05-13T06:36:11.333Z,74.10
2019-05-13T06:38:39.053Z,73.65
2019-05-13T06:41:11.051Z,74.93
2019-05-13T06:43:36.076Z,74.27
2019-05-13T06:46:03.586Z,73.04
2019-05-13T06:48:32.308Z,70.72
2019-05-13T06:51:02.303Z,70.60
2019-05-13T06:53:29.277Z,70.08
2019-05-13T06:55:56.787Z,66.98
2019-05-13T06:58:24.280Z,68.28
2019-05-13T07:00:51.820Z,65.47
2019-05-13T07:03:21.798Z,67.10
2019-05-13T07:05:48.601Z,65.51
2019-05-13T07:08:16.097Z,65.32
2019-05-13T07:10:44.374Z,64.97
2019-05-13T07:13:11.873Z,64.08
2019-05-13T07:15:41.657Z,63.71
2019-05-13T07:18:08.609Z,64.55
2019-05-13T07:20:36.131Z,66.71
2019-05-13T07:23:03.629Z,63.16
2019-05-13T07:25:32.650Z,62.90
2019-05-13T07:28:02.156Z,64.38
2019-05-13T07:30:42.430Z,61.12
2019-05-13T07:33:12.281Z,63.02
2019-05-13T07:35:38.884Z,60.09
2019-05-13T07:38:06.953Z,62.13
2019-05-13T07:40:34.489Z,63.15
2019-05-13T07:43:02.757Z,60.91
2019-05-13T07:45:31.663Z,61.26
2019-05-13T07:48:01.409Z,60.73
2019-05-13T07:50:28.549Z,59.77
2019-05-13T07:52:56.718Z,61.52
2019-05-13T07:55:24.237Z,61.77
2019-05-13T07:57:51.737Z,62.13
2019-05-13T08:00:21.634Z,59.96
2019-05-13T08:02:48.473Z,58.93
2019-05-13T08:05:15.998Z,59.67
2019-05-13T08:07:43.565Z,59.11
2019-05-13T08:10:11.847Z,60.44
2019-05-13T08:12:41.285Z,60.53
2019-05-13T08:15:08.583Z,60.54
2019-05-13T08:17:36.086Z,59.17
2019-05-13T08:20:05.470Z,57.94
2019-05-13T08:22:32.973Z,59.72
2019-05-13T08:25:02.963Z,58.85
2019-05-13T08:27:31.384Z,56.06
2019-05-13T08:30:01.471Z,57.45
2019-05-13T08:32:28.445Z,56.20
2019-05-13T08:35:01.513Z,55.05
2019-05-13T08:37:25.181Z,55.30
2019-05-13T08:39:52.681Z,55.83
2019-05-13T08:42:23.412Z,55.71
2019-05-13T08:44:52.059Z,56.74
2019-05-13T08:47:18.655Z,51.35
2019-05-13T08:49:46.157Z,55.42
2019-05-13T08:52:13.668Z,55.01
2019-05-13T08:54:41.957Z,52.24
2019-05-13T08:57:11.632Z,54.30
2019-05-13T08:59:38.898Z,52.23
2019-05-13T09:02:06.403Z,54.84
2019-05-13T09:04:33.903Z,53.55
2019-05-13T09:07:02.454Z,55.25
2019-05-13T09:09:31.444Z,53.77
2019-05-13T09:12:02.093Z,51.76
2019-05-13T09:14:28.682Z,50.33
2019-05-13T09:16:56.968Z,49.40
2019-05-13T09:19:24.465Z,48.21
2019-05-13T09:21:52.634Z,51.20
2019-05-13T09:24:27.067Z,47.48
2019-05-13T09:26:49.492Z,51.67
2019-05-13T09:29:17.004Z,50.32
2019-05-13T09:31:44.508Z,47.97
2019-05-13T09:34:12.379Z,45.94
2019-05-13T09:36:41.694Z,45.96
2019-05-13T09:39:12.530Z,47.75
2019-05-13T09:41:41.991Z,42.74
2019-05-13T09:44:08.473Z,49.38
2019-05-13T09:46:35.985Z,45.20
2019-05-13T09:49:15.755Z,44.44
2019-05-13T09:51:33.490Z,44.88
2019-05-13T09:54:01.438Z,47.22
2019-05-13T09:56:31.690Z,45.71
2019-05-13T09:58:58.406Z,42.10
2019-05-13T10:01:26.696Z,38.74
2019-05-13T10:03:57.951Z,41.52
2019-05-13T10:06:23.422Z,41.81
2019-05-13T10:08:52.696Z,44.79
2019-05-13T10:11:21.809Z,40.08
2019-05-13T10:13:51.491Z,39.97
2019-05-13T10:16:22.046Z,42.06
2019-05-13T10:18:49.208Z,42.69
2019-05-13T10:21:17.482Z,41.82
2019-05-13T10:23:44.996Z,38.15
2019-05-13T10:26:14.175Z,37.47
2019-05-13T10:28:42.615Z,39.61
2019-05-13T10:31:11.957Z,36.46
2019-05-13T10:33:41.784Z,40.42
2019-05-13T10:36:11.909Z,37.38
2019-05-13T10:38:38.428Z,37.81
2019-05-13T10:41:05.932Z,38.32
2019-05-13T10:43:33.462Z,34.33
2019-05-13T10:46:03.130Z,36.05
2019-05-13T10:48:30.677Z,36.66
2019-05-13T10:50:58.178Z,38.25
2019-05-13T10:53:25.698Z,37.59
2019-05-13T10:55:53.191Z,36.01
2019-05-13T10:58:23.429Z,35.55
2019-05-13T11:00:51.918Z,36.91
2019-05-13T11:03:22.743Z,36.88
2019-05-13T11:05:52.204Z,33.22
2019-05-13T11:08:18.662Z,36.66
2019-05-13T11:10:46.159Z,33.76
2019-05-13T11:13:13.846Z,33.61
2019-05-13T11:15:45.323Z,35.06
2019-05-13T11:18:18.995Z,37.61
2019-05-13T11:20:41.891Z,32.93
2019-05-13T11:23:11.924Z,35.50
2019-05-13T11:25:41.199Z,32.88
2019-05-13T11:28:08.125Z,38.32
2019-05-13T11:30:35.619Z,36.21
2019-05-13T11:33:03.138Z,41.92
2019-05-13T11:35:31.959Z,35.06
2019-05-13T11:38:01.633Z,33.26
2019-05-13T11:40:31.733Z,33.69
2019-05-13T11:42:58.568Z,35.50
2019-05-13T11:45:26.073Z,37.74
2019-05-13T11:47:53.585Z,35.75
2019-05-13T11:50:22.348Z,34.83
2019-05-13T11:52:52.430Z,35.31
2019-05-13T11:55:23.045Z,36.37
2019-05-13T11:57:53.117Z,35.71
2019-05-13T12:00:23.844Z,34.69
2019-05-13T12:02:54.618Z,35.61
2019-05-13T12:05:22.588Z,34.17
2019-05-13T12:07:53.510Z,32.84
2019-05-13T12:10:22.661Z,32.62
2019-05-13T12:12:48.930Z,32.50
2019-05-13T12:15:26.905Z,32.42
2019-05-13T12:17:46.437Z,33.98
2019-05-13T12:20:14.743Z,31.88
2019-05-13T12:22:42.786Z,32.84
2019-05-13T12:25:13.868Z,34.57
2019-05-13T12:27:41.376Z,36.09
2019-05-13T12:30:09.213Z,33.71
2019-05-13T12:32:36.707Z,34.23
2019-05-13T12:35:04.890Z,28.33
2019-05-13T12:37:33.454Z,34.83
2019-05-13T12:40:03.199Z,28.91
2019-05-13T12:42:33.802Z,31.62
2019-05-13T12:45:08.357Z,28.41
2019-05-13T12:47:28.978Z,32.21
2019-05-13T12:49:56.511Z,30.06
2019-05-13T12:52:24.097Z,33.22
2019-05-13T12:54:52.831Z,28.10
2019-05-13T12:57:23.144Z,31.91
2019-05-13T12:59:50.021Z,27.06
2019-05-13T13:02:17.512Z,28.17
2019-05-13T13:05:07.772Z,30.44
2019-05-13T13:07:14.279Z,28.23
2019-05-13T13:09:43.247Z,33.18
2019-05-13T13:12:11.804Z,27.85
2019-05-13T13:14:43.285Z,27.32
2019-05-13T13:17:08.545Z,31.86
2019-05-13T13:19:36.056Z,27.10
2019-05-13T13:22:07.682Z,28.91
2019-05-13T13:24:32.817Z,29.43
2019-05-13T13:27:00.325Z,28.96
2019-05-13T13:29:27.837Z,29.04
2019-05-13T13:31:56.021Z,28.55
2019-05-13T13:34:25.776Z,30.41
2019-05-13T13:36:52.929Z,29.90
2019-05-13T13:39:25.459Z,30.22
2019-05-13T13:41:53.347Z,28.66
2019-05-13T13:44:24.080Z,28.96
2019-05-13T13:46:50.773Z,30.40
2019-05-13T13:49:18.389Z,29.89
2019-05-13T13:51:45.901Z,29.55
2019-05-13T13:54:13.400Z,26.64
2019-05-13T13:56:43.716Z,26.89
2019-05-13T13:59:13.709Z,29.15
2019-05-13T14:01:40.048Z,28.27
2019-05-13T14:04:07.566Z,30.39
2019-05-13T14:09:05.777Z,25.82
2019-05-13T14:11:34.380Z,27.72
2019-05-13T14:14:02.260Z,30.76
2019-05-13T14:16:34.291Z,25.90
2019-05-13T14:18:59.101Z,28.17
2019-05-13T14:21:26.612Z,27.65
2019-05-13T14:23:54.117Z,25.67
2019-05-13T14:26:22.303Z,28.11
2019-05-13T14:28:53.278Z,29.07
2019-05-13T14:31:20.986Z,28.44
2019-05-13T14:33:48.377Z,27.53
2019-05-13T14:36:16.068Z,30.51
2019-05-13T14:38:43.561Z,28.18
2019-05-13T14:41:12.398Z,29.04
2019-05-13T14:43:40.149Z,30.16
2019-05-13T14:46:07.666Z,29.73
2019-05-13T14:48:35.169Z,30.70
2019-05-13T14:51:02.687Z,30.47
2019-05-13T14:53:32.073Z,29.99
2019-05-13T14:56:02.642Z,28.63
2019-05-13T14:58:29.261Z,29.06
2019-05-13T15:01:11.241Z,32.39
2019-05-13T15:03:26.323Z,31.49
2019-05-13T15:05:53.899Z,28.65
2019-05-13T15:08:25.564Z,29.71
2019-05-13T15:10:53.387Z,30.40
2019-05-13T15:13:20.154Z,28.35
2019-05-13T15:15:47.662Z,29.36
2019-05-13T15:18:15.177Z,28.37
2019-05-13T15:20:42.748Z,29.61
2019-05-13T15:23:11.893Z,27.69
2019-05-13T15:25:42.040Z,27.72
2019-05-13T15:28:11.798Z,27.48
2019-05-13T15:30:38.729Z,30.40
2019-05-13T15:33:06.238Z,31.38
2019-05-13T15:35:33.762Z,32.96
2019-05-13T15:38:01.773Z,32.54
2019-05-13T15:40:31.194Z,34.16
2019-05-13T15:42:58.959Z,33.41
2019-05-13T15:45:27.289Z,34.06
2019-05-13T15:47:54.792Z,34.10
2019-05-13T15:50:22.302Z,32.60
2019-05-13T15:52:49.808Z,34.41
2019-05-13T15:55:17.312Z,31.91
2019-05-13T15:57:45.603Z,32.82
2019-05-13T16:00:13.110Z,33.41
2019-05-13T16:02:42.139Z,32.44
2019-05-13T16:05:11.993Z,32.94
2019-05-13T16:07:41.173Z,34.18
2019-05-13T16:10:08.360Z,32.68
2019-05-13T16:12:36.757Z,32.54
2019-05-13T16:15:07.225Z,31.85
2019-05-13T16:17:41.303Z,32.69
2019-05-13T16:20:05.425Z,31.62
2019-05-13T16:22:32.937Z,33.08
2019-05-13T16:25:01.507Z,33.27
2019-05-13T16:27:31.132Z,32.14
2019-05-13T16:29:58.605Z,32.25
2019-05-13T16:32:26.901Z,34.03
2019-05-13T16:34:54.469Z,33.35
2019-05-13T16:37:22.131Z,34.62
2019-05-13T16:39:51.915Z,33.76
2019-05-13T16:42:22.403Z,34.55
2019-05-13T16:44:48.224Z,34.37
2019-05-13T16:47:15.736Z,34.35
2019-05-13T16:49:43.246Z,35.09
2019-05-13T16:52:11.992Z,34.85
2019-05-13T16:54:42.171Z,35.04
2019-05-13T16:57:08.752Z,36.53
2019-05-13T16:59:36.297Z,36.16
2019-05-13T17:02:04.856Z,36.60
2019-05-13T17:04:32.384Z,37.05
2019-05-13T17:07:01.563Z,37.47
2019-05-13T17:09:29.316Z,38.68
2019-05-13T17:11:56.837Z,38.50
2019-05-13T17:14:24.505Z,38.21
2019-05-13T17:16:52.685Z,38.57
2019-05-13T17:19:20.189Z,39.75
2019-05-13T17:21:47.732Z,39.94
2019-05-13T17:24:15.285Z,39.73
2019-05-13T17:26:42.789Z,39.31
2019-05-13T17:29:12.058Z,40.48
2019-05-13T17:31:41.510Z,41.62
2019-05-13T17:34:08.788Z,40.15
2019-05-13T17:36:36.295Z,41.26
2019-05-13T17:39:05.243Z,41.33
2019-05-13T17:41:32.741Z,40.29
2019-05-13T17:44:02.238Z,41.35
2019-05-13T17:46:29.485Z,39.90
2019-05-13T17:48:57.009Z,39.14
2019-05-13T17:51:24.501Z,39.99
2019-05-13T17:53:52.124Z,40.75
2019-05-13T17:56:21.680Z,40.95
2019-05-13T17:58:49.244Z,42.15
2019-05-13T18:01:16.749Z,41.35
2019-05-13T18:03:44.262Z,41.71
2019-05-13T18:06:11.775Z,42.22
2019-05-13T18:08:41.062Z,42.61
2019-05-13T18:11:08.510Z,42.16
2019-05-13T18:13:36.017Z,42.05
2019-05-13T18:16:03.578Z,41.66
2019-05-13T18:18:40.304Z,41.83
2019-05-13T18:21:01.482Z,41.04
2019-05-13T18:23:29.238Z,42.24
2019-05-13T18:25:57.535Z,42.93
2019-05-13T18:28:30.858Z,41.05
2019-05-13T18:30:54.501Z,41.13
2019-05-13T18:33:22.028Z,42.86
2019-05-13T18:35:49.711Z,42.91
2019-05-13T18:38:17.562Z,43.04
2019-05-13T18:40:45.369Z,44.08
2019-05-13T18:43:12.882Z,42.98
2019-05-13T18:45:41.964Z,43.15
2019-05-13T18:48:12.317Z,43.91
2019-05-13T18:50:41.941Z,44.23
2019-05-13T18:53:09.595Z,43.93
2019-05-13T18:55:37.265Z,44.52
2019-05-13T18:58:05.057Z,46.76
2019-05-13T19:00:32.544Z,45.46
2019-05-13T19:03:01.296Z,45.16
2019-05-13T19:05:29.035Z,47.58
2019-05-13T19:07:56.529Z,47.84
2019-05-13T19:10:24.040Z,46.70
2019-05-13T19:12:52.296Z,49.88
2019-05-13T19:15:21.255Z,48.00
2019-05-13T19:17:48.981Z,47.62
2019-05-13T19:20:16.556Z,48.67
2019-05-13T19:22:44.054Z,49.17
2019-05-13T19:25:12.025Z,48.80
2019-05-13T19:27:41.285Z,49.46
2019-05-13T19:30:09.017Z,49.32
2019-05-13T19:32:36.516Z,49.89
2019-05-13T19:35:05.394Z,49.82
2019-05-13T19:37:33.561Z,50.03
2019-05-13T19:40:01.272Z,50.46
2019-05-13T19:42:31.218Z,50.61
2019-05-13T19:44:58.849Z,50.08
2019-05-13T19:47:26.341Z,51.16
2019-05-13T19:49:53.849Z,51.14
2019-05-13T19:52:21.457Z,52.31
2019-05-13T19:54:51.270Z,52.54
2019-05-13T19:57:18.257Z,51.89
2019-05-13T19:59:45.760Z,51.89
2019-05-13T20:02:13.266Z,52.95
2019-05-13T20:04:41.315Z,52.60
2019-05-13T20:07:11.788Z,52.70
2019-05-13T20:09:39.149Z,53.84
2019-05-13T20:12:06.676Z,53.99
2019-05-13T20:14:34.260Z,54.29
2019-05-13T20:17:02.529Z,52.97
2019-05-13T20:19:45.702Z,54.29
2019-05-13T20:21:59.320Z,53.54
2019-05-13T20:24:27.596Z,53.74
2019-05-13T20:26:55.869Z,53.67
2019-05-13T20:29:23.377Z,54.97
2019-05-13T20:31:51.872Z,55.69
2019-05-13T20:34:19.572Z,55.70
2019-05-13T20:36:47.074Z,56.82
2019-05-13T20:39:14.600Z,56.52
2019-05-13T20:41:42.177Z,56.82
2019-05-13T20:44:09.686Z,56.99
2019-05-13T20:46:37.193Z,57.05
2019-05-13T20:49:04.708Z,57.97
2019-05-13T20:51:32.278Z,57.65
2019-05-13T20:54:02.220Z,58.73
2019-05-13T20:56:29.081Z,59.37
2019-05-13T20:58:56.597Z,59.15
2019-05-13T21:01:24.095Z,59.21
2019-05-13T21:03:51.753Z,60.56
2019-05-13T21:06:19.492Z,60.49
2019-05-13T21:08:46.989Z,60.46
2019-05-13T21:11:14.497Z,60.89
2019-05-13T21:13:41.994Z,61.75
2019-05-13T21:16:11.420Z,60.75
2019-05-13T21:18:38.733Z,60.79
2019-05-13T21:21:06.246Z,62.39
2019-05-13T21:23:33.739Z,61.83
2019-05-13T21:26:01.771Z,61.91
2019-05-13T21:28:29.424Z,62.30
2019-05-13T21:30:56.924Z,62.21
2019-05-13T21:33:25.097Z,62.53
2019-05-13T21:35:52.607Z,62.70
2019-05-13T21:38:22.142Z,63.08
2019-05-13T21:40:52.031Z,63.51
2019-05-13T21:43:21.416Z,63.17
2019-05-13T21:45:48.345Z,63.65
2019-05-13T21:48:15.836Z,64.36
2019-05-13T21:50:43.344Z,63.86
2019-05-13T21:53:12.426Z,64.72
2019-05-13T21:55:41.420Z,65.03
2019-05-13T21:58:11.390Z,64.76
2019-05-13T22:00:42.370Z,65.82
2019-05-13T22:03:11.539Z,66.36
2019-05-13T22:05:39.236Z,67.06
2019-05-13T22:08:06.724Z,66.73
2019-05-13T22:10:34.235Z,67.30
2019-05-13T22:13:01.733Z,67.05
2019-05-13T22:15:29.244Z,67.23
2019-05-13T22:17:56.737Z,67.59
2019-05-13T22:20:24.245Z,68.17
2019-05-13T22:22:52.126Z,68.19
2019-05-13T22:25:19.733Z,68.24
2019-05-13T22:27:47.228Z,68.65
2019-05-13T22:30:14.741Z,69.30
2019-05-13T22:32:42.911Z,69.21
2019-05-13T22:35:11.217Z,69.69
2019-05-13T22:37:38.840Z,70.39
2019-05-13T22:40:06.996Z,70.54
2019-05-13T22:42:34.526Z,70.96
2019-05-13T22:45:03.090Z,71.39
2019-05-13T22:47:31.523Z,71.96
2019-05-13T22:50:01.756Z,72.61
2019-05-13T22:52:31.108Z,73.04
2019-05-13T22:54:57.964Z,73.16
2019-05-13T22:57:25.520Z,73.40
2019-05-13T22:59:53.012Z,73.79
2019-05-13T23:02:21.975Z,73.70
2019-05-13T23:04:51.201Z,74.30
2019-05-13T23:07:18.866Z,74.04
2019-05-13T23:09:46.376Z,74.44
2019-05-13T23:12:13.888Z,74.19
2019-05-13T23:14:42.152Z,74.96
2019-05-13T23:17:09.662Z,74.91
2019-05-13T23:19:37.151Z,75.45
2019-05-13T23:22:04.664Z,76.02
2019-05-13T23:24:32.165Z,75.77
2019-05-13T23:27:02.196Z,76.01
2019-05-13T23:29:31.713Z,75.88
2019-05-13T23:32:01.464Z,75.79
2019-05-13T23:34:29.086Z,75.85
2019-05-13T23:36:57.366Z,76.12
2019-05-13T23:39:25.630Z,77.08
2019-05-13T23:41:53.145Z,76.75
2019-05-13T23:44:27.117Z,77.31
2019-05-13T23:46:51.382Z,77.99
2019-05-13T23:49:20.936Z,77.76
2019-05-13T23:51:48.288Z,78.45
2019-05-13T23:54:15.780Z,78.89
2019-05-13T23:56:43.362Z,78.72
2019-05-13T23:59:11.326Z,78.26
